Time;durP1;ratioP1;P1;durP2;ratioP2;P2;SDS_P1;SDS_P2;PMS_P1;PMS_P2;Temp;Humidity;BMP_temperature;BMP_pressure;BME280_temperature;BME280_humidity;BME280_pressure;Samples;Min_cycle;Max_cycle;Signal;HPM_P1;HPM_P2
2022/10/08 00:01:26;;;;;;;0.10;0.10;;;11.70;99.90;;;;;;5051860;28;20211;-78
2022/10/08 00:03:55;;;;;;;0.00;0.00;;;11.80;99.90;;;;;;5052881;28;20260;-78
2022/10/08 00:06:25;;;;;;;0.10;0.10;;;11.80;99.90;;;;;;5054791;28;20205;-80
2022/10/08 00:08:57;;;;;;;0.10;0.10;;;11.90;99.90;;;;;;5055978;28;20198;-78
2022/10/08 00:11:27;;;;;;;0.10;0.10;;;12.00;99.90;;;;;;5055004;28;20201;-76
2022/10/08 00:13:57;;;;;;;0.10;0.10;;;12.00;99.90;;;;;;5054100;28;20252;-77
2022/10/08 00:16:28;;;;;;;0.10;0.10;;;12.10;99.90;;;;;;5054803;28;20214;-76
2022/10/08 00:18:59;;;;;;;0.10;0.10;;;12.10;99.90;;;;;;5054718;28;20751;-77
2022/10/08 00:21:29;;;;;;;0.10;0.10;;;12.20;99.90;;;;;;5054904;28;20735;-76
2022/10/08 00:23:58;;;;;;;0.00;0.00;;;12.20;99.90;;;;;;5054737;28;20202;-79
2022/10/08 00:26:28;;;;;;;0.10;0.10;;;12.30;99.90;;;;;;5049311;28;20240;-81
2022/10/08 00:28:58;;;;;;;0.05;0.05;;;12.30;99.90;;;;;;5055459;28;20195;-78
2022/10/08 00:31:31;;;;;;;0.10;0.10;;;12.30;99.90;;;;;;5055494;28;20203;-78
2022/10/08 00:34:00;;;;;;;0.10;0.10;;;12.40;99.90;;;;;;5042011;28;20658;-78
2022/10/08 00:36:32;;;;;;;0.00;0.00;;;12.40;99.90;;;;;;5055449;28;20267;-79
2022/10/08 00:39:03;;;;;;;0.05;0.05;;;12.50;99.90;;;;;;5055933;28;20564;-77
2022/10/08 00:41:33;;;;;;;0.00;0.00;;;12.50;99.90;;;;;;5055247;28;20240;-77
2022/10/08 00:44:24;;;;;;;0.00;0.00;;;12.60;99.90;;;;;;5039049;28;20191;-77
2022/10/08 00:46:53;;;;;;;0.10;0.10;;;12.70;99.90;;;;;;5054261;28;20203;-77
2022/10/08 00:49:24;;;;;;;0.10;0.10;;;12.70;99.90;;;;;;5055553;28;20194;-77
2022/10/08 00:51:57;;;;;;;0.10;0.10;;;12.80;99.90;;;;;;5059780;28;20249;-79
2022/10/08 00:54:25;;;;;;;0.10;0.10;;;12.70;99.90;;;;;;5062154;28;20286;-79
2022/10/08 00:56:55;;;;;;;0.00;0.00;;;12.70;99.90;;;;;;5060850;28;20260;-78
2022/10/08 00:59:27;;;;;;;0.00;0.00;;;12.70;99.90;;;;;;5057194;28;20195;-78
2022/10/08 01:01:56;;;;;;;0.10;0.10;;;12.60;99.90;;;;;;5056980;28;20222;-77
2022/10/08 01:04:25;;;;;;;0.10;0.10;;;12.70;99.90;;;;;;5055172;28;20198;-78
2022/10/08 01:06:59;;;;;;;0.10;0.10;;;12.70;99.90;;;;;;5054126;28;20202;-78
2022/10/08 01:09:33;;;;;;;0.10;0.10;;;12.70;99.90;;;;;;5054259;28;20212;-78
2022/10/08 01:12:10;;;;;;;0.10;0.10;;;12.70;99.90;;;;;;5055839;28;20276;-79
2022/10/08 01:14:46;;;;;;;0.10;0.10;;;12.70;99.90;;;;;;5053511;28;20202;-78
2022/10/08 01:17:23;;;;;;;0.10;0.10;;;12.70;99.90;;;;;;5054530;28;20593;-78
2022/10/08 01:20:28;;;;;;;0.00;0.00;;;12.70;99.90;;;;;;5056678;28;20194;-80
2022/10/08 01:23:25;;;;;;;0.10;0.10;;;12.70;99.90;;;;;;5059620;28;20226;-81
2022/10/08 01:25:56;;;;;;;0.10;0.10;;;12.70;99.90;;;;;;5046531;28;20194;-80
2022/10/08 01:28:32;;;;;;;0.03;0.03;;;12.70;99.90;;;;;;5071948;28;20174;-81
2022/10/08 01:31:12;;;;;;;0.10;0.10;;;12.70;99.90;;;;;;5071642;28;20198;-79
2022/10/08 01:33:45;;;;;;;0.10;0.10;;;12.70;99.90;;;;;;5058252;28;20205;-80
2022/10/08 01:36:18;;;;;;;0.10;0.10;;;12.70;99.90;;;;;;5053393;28;20194;-79
2022/10/08 01:38:50;;;;;;;0.10;0.10;;;12.70;99.90;;;;;;5058652;28;20217;-79
2022/10/08 01:41:21;;;;;;;0.10;0.10;;;12.70;99.90;;;;;;5053963;28;20230;-78
2022/10/08 01:43:57;;;;;;;0.10;0.10;;;12.60;99.90;;;;;;5051688;28;20214;-78
2022/10/08 01:46:28;;;;;;;0.10;0.10;;;12.50;99.90;;;;;;5056116;28;20743;-78
2022/10/08 01:49:01;;;;;;;0.00;0.00;;;12.50;99.90;;;;;;5066415;28;20565;-77
2022/10/08 01:51:34;;;;;;;0.10;0.10;;;12.50;99.90;;;;;;5057505;28;20234;-77
2022/10/08 01:54:05;;;;;;;0.00;0.00;;;12.50;99.90;;;;;;5051846;28;20228;-77
2022/10/08 01:56:36;;;;;;;0.08;0.08;;;12.40;99.90;;;;;;5060168;28;20206;-78
2022/10/08 01:59:11;;;;;;;0.10;0.10;;;12.40;99.90;;;;;;5057445;28;20226;-77
2022/10/08 02:01:50;;;;;;;0.00;0.00;;;12.40;99.90;;;;;;5053357;28;20723;-76
2022/10/08 02:04:35;;;;;;;0.10;0.10;;;12.40;99.90;;;;;;5051353;28;20208;-77
2022/10/08 02:07:07;;;;;;;0.10;0.10;;;12.20;99.90;;;;;;5037393;28;20576;-76
2022/10/08 02:09:38;;;;;;;0.10;0.10;;;12.00;99.90;;;;;;5051290;28;20206;-76
2022/10/08 02:12:07;;;;;;;0.10;0.10;;;11.90;99.90;;;;;;5045089;28;20272;-76
2022/10/08 02:14:40;;;;;;;0.10;0.10;;;11.70;99.90;;;;;;5050840;28;20198;-77
2022/10/08 02:17:20;;;;;;;0.00;0.00;;;11.70;99.90;;;;;;5052367;28;20206;-77
2022/10/08 02:19:54;;;;;;;0.00;0.00;;;11.70;99.90;;;;;;5046442;28;20244;-78
2022/10/08 02:22:27;;;;;;;0.10;0.10;;;11.70;99.90;;;;;;5051566;28;20210;-78
2022/10/08 02:25:00;;;;;;;0.10;0.10;;;11.70;99.90;;;;;;5052228;28;20236;-77
2022/10/08 02:27:36;;;;;;;0.10;0.10;;;11.80;99.90;;;;;;5051757;28;20186;-77
2022/10/08 02:30:09;;;;;;;0.00;0.00;;;11.90;99.90;;;;;;5052082;28;20605;-77
2022/10/08 02:32:47;;;;;;;0.10;0.10;;;12.00;99.90;;;;;;5051137;28;20218;-77
2022/10/08 02:35:24;;;;;;;0.10;0.10;;;12.00;99.90;;;;;;5051675;28;20197;-78
2022/10/08 02:37:57;;;;;;;0.10;0.10;;;12.10;99.90;;;;;;5052094;28;20202;-77
2022/10/08 02:40:27;;;;;;;0.00;0.00;;;12.10;99.90;;;;;;5051881;28;20604;-77
2022/10/08 02:43:00;;;;;;;0.10;0.10;;;12.20;99.90;;;;;;5051781;28;20598;-77
2022/10/08 02:45:33;;;;;;;0.10;0.10;;;12.30;99.90;;;;;;5051902;28;20206;-77
2022/10/08 02:48:06;;;;;;;0.10;0.10;;;12.40;99.90;;;;;;5051474;28;20187;-77
2022/10/08 02:50:39;;;;;;;0.00;0.00;;;12.40;99.90;;;;;;5049950;28;20210;-76
2022/10/08 02:53:07;;;;;;;0.10;0.10;;;12.50;99.90;;;;;;5051586;28;20280;-77
2022/10/08 02:55:43;;;;;;;0.10;0.10;;;12.60;99.90;;;;;;5050343;28;20279;-78
2022/10/08 02:58:13;;;;;;;0.00;0.00;;;12.60;99.90;;;;;;5051404;28;20214;-78
2022/10/08 03:00:49;;;;;;;0.10;0.10;;;12.70;99.90;;;;;;5050764;28;20238;-79
2022/10/08 03:03:23;;;;;;;0.10;0.10;;;12.70;99.90;;;;;;5051621;28;20229;-78
2022/10/08 03:05:52;;;;;;;0.00;0.00;;;12.70;99.90;;;;;;5051630;28;20206;-78
2022/10/08 03:08:21;;;;;;;0.00;0.00;;;12.70;99.90;;;;;;5051080;28;20320;-78
2022/10/08 03:10:49;;;;;;;0.00;0.00;;;12.70;99.90;;;;;;5051205;28;20202;-77
2022/10/08 03:13:19;;;;;;;0.10;0.10;;;12.60;99.90;;;;;;5049048;28;20283;-78
2022/10/08 03:15:52;;;;;;;0.10;0.10;;;12.60;99.90;;;;;;5052538;28;20202;-78
2022/10/08 03:18:23;;;;;;;0.00;0.00;;;12.60;99.90;;;;;;5052326;28;20214;-76
2022/10/08 03:20:54;;;;;;;0.08;0.08;;;12.60;99.90;;;;;;5045438;28;20233;-76
2022/10/08 03:23:24;;;;;;;0.10;0.10;;;12.60;99.90;;;;;;5046482;28;20217;-77
2022/10/08 03:25:52;;;;;;;0.10;0.10;;;12.70;99.90;;;;;;5052482;28;20219;-76
2022/10/08 03:28:19;;;;;;;0.00;0.00;;;12.70;99.90;;;;;;5052068;28;20244;-76
2022/10/08 03:30:49;;;;;;;0.10;0.10;;;12.70;99.90;;;;;;5051537;28;20213;-78
2022/10/08 03:33:17;;;;;;;0.00;0.00;;;12.70;99.90;;;;;;5051213;28;20214;-77
2022/10/08 03:35:45;;;;;;;0.10;0.10;;;12.70;99.90;;;;;;5050422;28;20199;-80
2022/10/08 03:38:15;;;;;;;0.00;0.00;;;12.70;99.90;;;;;;5053697;28;20623;-77
2022/10/08 03:40:43;;;;;;;0.10;0.10;;;12.80;99.90;;;;;;5054790;28;20669;-76
2022/10/08 03:43:11;;;;;;;0.10;0.10;;;12.90;99.90;;;;;;5054968;28;20284;-77
2022/10/08 03:45:39;;;;;;;0.10;0.10;;;12.90;99.90;;;;;;5055110;28;20202;-77
2022/10/08 03:48:08;;;;;;;0.00;0.00;;;12.90;99.90;;;;;;5055397;28;20198;-77
2022/10/08 03:50:36;;;;;;;0.00;0.00;;;13.00;99.90;;;;;;5053654;28;20598;-76
2022/10/08 03:53:04;;;;;;;0.10;0.10;;;12.90;99.90;;;;;;5048528;28;20583;-76
2022/10/08 03:55:35;;;;;;;0.03;0.03;;;12.90;99.90;;;;;;5050176;28;20213;-77
2022/10/08 03:58:03;;;;;;;0.03;0.03;;;12.90;99.90;;;;;;5056026;28;20200;-77
2022/10/08 04:00:31;;;;;;;0.00;0.00;;;12.90;99.90;;;;;;5054373;28;20689;-77
2022/10/08 04:02:59;;;;;;;0.10;0.10;;;12.90;99.90;;;;;;5049092;28;20740;-77
2022/10/08 04:05:28;;;;;;;0.10;0.10;;;12.90;99.90;;;;;;5056185;28;20198;-76
2022/10/08 04:07:56;;;;;;;0.05;0.05;;;12.90;99.90;;;;;;5056082;28;20202;-77
2022/10/08 04:10:24;;;;;;;0.00;0.00;;;12.90;99.90;;;;;;5056025;28;20248;-77
2022/10/08 04:12:52;;;;;;;0.00;0.00;;;12.90;99.90;;;;;;5054941;28;20831;-77
2022/10/08 04:15:20;;;;;;;0.10;0.10;;;12.90;99.90;;;;;;5054365;28;20194;-77
2022/10/08 04:17:48;;;;;;;0.10;0.10;;;13.00;99.90;;;;;;5077113;22;20202;-75
2022/10/08 04:20:16;;;;;;;0.10;0.10;;;13.00;99.90;;;;;;5039942;28;20270;-73
2022/10/08 04:22:45;;;;;;;0.00;0.00;;;13.00;99.90;;;;;;5034806;28;20199;-74
2022/10/08 04:25:13;;;;;;;0.00;0.00;;;13.00;99.90;;;;;;5034536;28;20219;-75
2022/10/08 04:27:41;;;;;;;0.00;0.00;;;13.00;99.90;;;;;;5034308;28;20195;-74
2022/10/08 04:30:10;;;;;;;0.00;0.00;;;13.10;99.90;;;;;;5014409;28;20663;-73
2022/10/08 04:32:38;;;;;;;0.00;0.00;;;13.00;99.90;;;;;;5014310;28;20211;-76
2022/10/08 04:35:07;;;;;;;0.00;0.00;;;13.00;99.90;;;;;;5014019;28;20207;-76
2022/10/08 04:37:35;;;;;;;0.00;0.00;;;13.10;99.90;;;;;;5003450;28;20204;-74
2022/10/08 04:40:05;;;;;;;0.00;0.00;;;13.10;99.90;;;;;;5011816;28;20281;-73
2022/10/08 04:42:33;;;;;;;0.10;0.10;;;13.10;99.90;;;;;;5006310;28;20254;-75
2022/10/08 04:45:01;;;;;;;0.08;0.08;;;13.10;99.90;;;;;;5014270;28;20230;-74
2022/10/08 04:47:28;;;;;;;0.00;0.00;;;13.10;99.90;;;;;;5014535;28;20200;-75
2022/10/08 04:49:56;;;;;;;0.10;0.10;;;13.10;99.90;;;;;;5012255;28;20270;-74
2022/10/08 04:52:24;;;;;;;0.00;0.00;;;13.10;99.90;;;;;;5014361;28;20625;-75
2022/10/08 04:54:52;;;;;;;0.10;0.10;;;13.10;99.90;;;;;;5016004;28;20192;-77
2022/10/08 04:57:21;;;;;;;0.00;0.00;;;13.10;99.90;;;;;;5034114;28;20195;-74
2022/10/08 04:59:49;;;;;;;0.10;0.10;;;13.10;99.90;;;;;;5017988;28;20224;-75
2022/10/08 05:02:37;;;;;;;0.10;0.10;;;13.10;99.90;;;;;;5014050;28;20647;-75
2022/10/08 05:05:06;;;;;;;0.10;0.10;;;13.20;99.90;;;;;;5013079;28;20196;-74
2022/10/08 05:07:34;;;;;;;0.00;0.00;;;13.20;99.90;;;;;;5014098;28;20199;-74
2022/10/08 05:10:02;;;;;;;0.05;0.05;;;13.20;99.90;;;;;;5013646;28;20612;-73
2022/10/08 05:12:31;;;;;;;0.00;0.00;;;13.20;99.90;;;;;;5013846;28;20199;-75
2022/10/08 05:14:59;;;;;;;0.10;0.10;;;13.30;99.90;;;;;;5014106;28;20219;-79
2022/10/08 05:17:27;;;;;;;0.00;0.00;;;13.30;99.90;;;;;;5013522;28;20199;-74
2022/10/08 05:19:55;;;;;;;0.00;0.00;;;13.30;99.90;;;;;;5011799;28;20227;-74
2022/10/08 05:22:22;;;;;;;0.00;0.00;;;13.30;99.90;;;;;;5010880;28;20262;-76
2022/10/08 05:24:50;;;;;;;0.00;0.00;;;13.30;99.90;;;;;;5014511;28;20204;-74
2022/10/08 05:27:18;;;;;;;0.00;0.00;;;13.30;99.90;;;;;;5013775;28;20614;-75
2022/10/08 05:29:47;;;;;;;0.00;0.00;;;13.40;99.90;;;;;;5010569;28;20710;-75
2022/10/08 05:32:15;;;;;;;0.00;0.00;;;13.40;99.90;;;;;;5008518;28;20204;-75
2022/10/08 05:34:43;;;;;;;0.10;0.10;;;13.40;99.90;;;;;;5013078;28;20200;-75
2022/10/08 05:37:11;;;;;;;0.00;0.00;;;13.40;99.90;;;;;;5013751;28;20188;-77
2022/10/08 05:39:39;;;;;;;0.10;0.10;;;13.50;99.90;;;;;;5010776;28;20310;-75
2022/10/08 05:42:07;;;;;;;0.10;0.10;;;13.50;99.90;;;;;;5013700;28;20203;-73
2022/10/08 05:44:35;;;;;;;0.00;0.00;;;13.40;99.90;;;;;;5014472;28;20199;-75
2022/10/08 05:47:06;;;;;;;0.00;0.00;;;13.40;99.90;;;;;;5013265;28;20206;-76
2022/10/08 05:49:34;;;;;;;0.00;0.00;;;13.40;99.90;;;;;;5011767;28;20242;-74
2022/10/08 05:52:02;;;;;;;0.00;0.00;;;13.40;99.90;;;;;;5016229;28;20620;-75
2022/10/08 05:54:30;;;;;;;0.10;0.10;;;13.40;99.90;;;;;;5008412;28;20994;-76
2022/10/08 05:56:57;;;;;;;0.00;0.00;;;13.30;99.90;;;;;;5012182;28;20211;-75
2022/10/08 05:59:25;;;;;;;0.00;0.00;;;13.40;99.90;;;;;;5010406;28;20219;-76
2022/10/08 06:01:53;;;;;;;0.10;0.10;;;13.40;99.90;;;;;;5010659;28;20192;-76
2022/10/08 06:04:22;;;;;;;0.10;0.10;;;13.30;99.90;;;;;;5010879;28;20295;-75
2022/10/08 06:06:51;;;;;;;0.10;0.10;;;13.40;99.90;;;;;;5011638;28;20657;-77
2022/10/08 06:09:20;;;;;;;0.00;0.00;;;13.40;99.90;;;;;;5002778;28;20227;-75
2022/10/08 06:11:49;;;;;;;0.00;0.00;;;13.40;99.90;;;;;;5010510;28;20674;-75
2022/10/08 06:14:19;;;;;;;0.00;0.00;;;13.40;99.90;;;;;;5017258;28;20199;-76
2022/10/08 06:16:47;;;;;;;0.00;0.00;;;13.40;99.90;;;;;;5012657;28;20724;-76
2022/10/08 06:19:28;;;;;;;0.03;0.03;;;13.40;99.90;;;;;;5018271;28;20635;-76
2022/10/08 06:21:56;;;;;;;0.00;0.00;;;13.40;99.90;;;;;;5011515;28;20247;-75
2022/10/08 06:24:24;;;;;;;0.00;0.00;;;13.40;99.90;;;;;;5012358;28;20195;-76
2022/10/08 06:26:52;;;;;;;0.00;0.00;;;13.40;99.90;;;;;;5012216;28;20321;-77
2022/10/08 06:29:21;;;;;;;0.00;0.00;;;13.40;99.90;;;;;;5014919;28;20750;-77
2022/10/08 06:31:49;;;;;;;0.10;0.10;;;13.40;99.90;;;;;;5010262;28;20211;-76
2022/10/08 06:34:17;;;;;;;0.10;0.10;;;13.40;99.90;;;;;;5022356;28;20196;-75
2022/10/08 06:36:46;;;;;;;0.00;0.00;;;13.50;99.90;;;;;;5012217;28;20533;-76
2022/10/08 06:39:16;;;;;;;0.00;0.00;;;13.40;99.90;;;;;;5001901;28;20277;-79
2022/10/08 06:41:47;;;;;;;0.10;0.10;;;13.50;99.90;;;;;;5010984;28;20204;-76
2022/10/08 06:44:17;;;;;;;0.00;0.00;;;13.50;99.90;;;;;;5012320;28;20215;-76
2022/10/08 06:46:45;;;;;;;0.00;0.00;;;13.50;99.90;;;;;;5013306;28;20507;-75
2022/10/08 06:49:13;;;;;;;0.10;0.10;;;13.50;99.90;;;;;;5006144;28;20232;-76
2022/10/08 06:51:41;;;;;;;0.00;0.00;;;13.50;99.90;;;;;;5016301;28;20262;-75
2022/10/08 06:54:10;;;;;;;0.10;0.10;;;13.60;99.90;;;;;;5019042;28;20657;-76
2022/10/08 06:56:38;;;;;;;0.00;0.00;;;13.60;99.90;;;;;;5029551;28;20192;-75
2022/10/08 06:59:07;;;;;;;0.10;0.10;;;13.60;99.90;;;;;;5015817;28;20215;-76
2022/10/08 07:01:35;;;;;;;0.00;0.00;;;13.60;99.90;;;;;;5005039;28;20258;-75
2022/10/08 07:04:06;;;;;;;0.00;0.00;;;13.60;99.90;;;;;;5013046;28;20195;-75
2022/10/08 07:06:34;;;;;;;0.00;0.00;;;13.60;99.90;;;;;;5012300;28;20206;-76
2022/10/08 07:09:05;;;;;;;0.00;0.00;;;13.70;99.90;;;;;;5011792;28;20231;-75
2022/10/08 07:11:35;;;;;;;0.00;0.00;;;13.70;99.90;;;;;;5011016;28;20663;-75
2022/10/08 07:14:03;;;;;;;0.00;0.00;;;13.80;99.90;;;;;;5011810;28;20208;-75
2022/10/08 07:16:31;;;;;;;0.00;0.00;;;13.90;99.90;;;;;;5011050;28;20258;-77
2022/10/08 07:18:59;;;;;;;0.00;0.00;;;13.90;99.90;;;;;;5008139;28;20318;-75
2022/10/08 07:21:28;;;;;;;0.00;0.00;;;13.90;99.90;;;;;;5011882;28;20207;-75
2022/10/08 07:23:58;;;;;;;0.00;0.00;;;14.00;99.90;;;;;;5012194;28;20671;-76
2022/10/08 07:26:28;;;;;;;0.00;0.00;;;14.10;99.90;;;;;;5011411;28;20608;-75
2022/10/08 07:28:59;;;;;;;0.00;0.00;;;14.20;99.90;;;;;;5011199;28;20273;-75
2022/10/08 07:31:30;;;;;;;0.00;0.00;;;14.20;99.90;;;;;;5012952;28;20192;-77
2022/10/08 07:33:59;;;;;;;0.00;0.00;;;14.30;99.90;;;;;;4994612;28;20215;-75
2022/10/08 07:36:28;;;;;;;0.05;0.05;;;14.30;99.90;;;;;;5010371;28;20257;-75
2022/10/08 07:38:58;;;;;;;0.10;0.10;;;14.40;99.90;;;;;;5011389;28;20235;-76
2022/10/08 07:41:27;;;;;;;0.00;0.00;;;14.40;99.90;;;;;;5010705;28;20218;-78
2022/10/08 07:43:59;;;;;;;0.00;0.00;;;14.40;99.90;;;;;;4999294;28;20227;-75
2022/10/08 07:46:27;;;;;;;0.03;0.03;;;14.40;99.90;;;;;;5006075;28;20208;-76
2022/10/08 07:48:57;;;;;;;0.00;0.00;;;14.50;99.90;;;;;;4989974;28;20242;-75
2022/10/08 07:51:26;;;;;;;0.00;0.00;;;14.50;99.90;;;;;;5011027;28;20262;-75
2022/10/08 07:53:55;;;;;;;0.00;0.00;;;14.50;99.90;;;;;;5014990;28;20241;-77
2022/10/08 07:56:29;;;;;;;0.00;0.00;;;14.50;99.90;;;;;;5025518;28;20261;-76
2022/10/08 07:58:59;;;;;;;0.00;0.00;;;14.60;99.90;;;;;;5009117;28;20281;-76
2022/10/08 08:01:28;;;;;;;0.00;0.00;;;14.70;99.90;;;;;;5014801;28;20254;-76
2022/10/08 08:04:00;;;;;;;0.10;0.10;;;14.60;99.90;;;;;;5019404;28;20202;-76
2022/10/08 08:06:29;;;;;;;0.00;0.00;;;14.70;99.90;;;;;;5024980;28;20196;-75
2022/10/08 08:08:59;;;;;;;0.03;0.03;;;14.70;99.90;;;;;;5003921;28;20645;-76
2022/10/08 08:11:28;;;;;;;0.00;0.00;;;14.70;99.90;;;;;;5002742;28;20671;-76
2022/10/08 08:13:56;;;;;;;0.00;0.00;;;14.70;99.90;;;;;;5014180;28;20195;-76
2022/10/08 08:16:27;;;;;;;0.00;0.00;;;14.70;99.90;;;;;;5018350;28;20198;-75
2022/10/08 08:18:58;;;;;;;0.10;0.10;;;14.80;99.90;;;;;;5008259;28;20285;-75
2022/10/08 08:21:28;;;;;;;0.00;0.00;;;14.80;99.90;;;;;;5015356;28;20298;-75
2022/10/08 08:23:57;;;;;;;0.00;0.00;;;14.90;99.90;;;;;;5016150;28;20191;-76
2022/10/08 08:26:27;;;;;;;0.00;0.00;;;14.90;99.90;;;;;;4998752;28;20246;-74
2022/10/08 08:28:57;;;;;;;0.00;0.00;;;14.90;99.90;;;;;;5019866;28;20223;-77
2022/10/08 08:31:28;;;;;;;0.00;0.00;;;15.00;99.90;;;;;;5017711;28;20195;-75
2022/10/08 08:33:59;;;;;;;0.00;0.00;;;15.00;99.90;;;;;;5015213;28;20203;-74
2022/10/08 08:36:29;;;;;;;0.00;0.00;;;15.00;99.90;;;;;;5013651;28;20235;-75
2022/10/08 08:38:57;;;;;;;0.00;0.00;;;15.00;99.90;;;;;;5015130;28;20622;-75
2022/10/08 08:42:02;;;;;;;0.00;0.00;;;15.00;99.90;;;;;;5014063;28;20277;-74
2022/10/08 08:44:34;;;;;;;0.10;0.10;;;15.00;99.90;;;;;;5012691;28;20618;-75
2022/10/08 08:47:08;;;;;;;0.00;0.00;;;15.00;99.90;;;;;;5015599;28;20215;-74
2022/10/08 08:49:41;;;;;;;0.00;0.00;;;15.10;99.90;;;;;;5015495;28;20231;-75
2022/10/08 08:52:11;;;;;;;0.10;0.10;;;15.10;99.90;;;;;;5014238;28;20196;-75
2022/10/08 08:54:39;;;;;;;0.00;0.00;;;15.10;99.90;;;;;;5017735;28;20639;-74
2022/10/08 08:57:19;;;;;;;0.00;0.00;;;15.20;99.90;;;;;;5013747;28;20199;-74
2022/10/08 08:59:50;;;;;;;0.00;0.00;;;15.20;99.90;;;;;;5014856;28;20207;-74
2022/10/08 09:02:25;;;;;;;0.10;0.10;;;15.20;99.90;;;;;;5012130;28;20212;-77
2022/10/08 09:04:57;;;;;;;0.00;0.00;;;15.20;99.90;;;;;;5022272;28;20254;-76
2022/10/08 09:07:28;;;;;;;0.00;0.00;;;15.30;99.90;;;;;;5013288;28;20200;-74
2022/10/08 09:09:59;;;;;;;0.00;0.00;;;15.20;99.90;;;;;;5011155;28;20231;-74
2022/10/08 09:12:33;;;;;;;0.00;0.00;;;15.30;99.90;;;;;;5013644;28;20542;-75
2022/10/08 09:15:02;;;;;;;0.00;0.00;;;15.40;99.90;;;;;;5014377;28;20653;-74
2022/10/08 09:17:35;;;;;;;0.00;0.00;;;15.40;99.90;;;;;;5009106;28;20200;-75
2022/10/08 09:20:04;;;;;;;0.00;0.00;;;15.50;99.90;;;;;;4996529;28;20219;-78
2022/10/08 09:22:37;;;;;;;0.00;0.00;;;15.50;99.90;;;;;;5013530;28;20223;-75
2022/10/08 09:25:10;;;;;;;0.00;0.00;;;15.60;99.90;;;;;;5011185;28;20203;-75
2022/10/08 09:27:49;;;;;;;0.00;0.00;;;15.70;99.90;;;;;;5021934;28;20269;-75
2022/10/08 09:30:29;;;;;;;0.00;0.00;;;15.80;99.90;;;;;;5001772;28;20195;-76
2022/10/08 09:33:02;;;;;;;0.00;0.00;;;15.90;99.90;;;;;;5013082;28;20204;-76
2022/10/08 09:35:33;;;;;;;0.00;0.00;;;16.00;99.90;;;;;;5012033;28;20195;-77
2022/10/08 09:38:01;;;;;;;0.00;0.00;;;16.10;99.90;;;;;;5006478;28;20224;-75
2022/10/08 09:40:33;;;;;;;0.00;0.00;;;16.10;99.90;;;;;;5004969;28;20204;-77
2022/10/08 09:43:13;;;;;;;0.00;0.00;;;16.00;99.90;;;;;;5014406;28;20721;-75
2022/10/08 09:45:44;;;;;;;0.00;0.00;;;15.90;99.90;;;;;;5013506;28;20199;-75
2022/10/08 09:48:28;;;;;;;0.00;0.00;;;16.10;99.90;;;;;;5016485;28;20219;-78
2022/10/08 09:51:01;;;;;;;0.00;0.00;;;16.30;99.90;;;;;;5009681;28;20687;-75
2022/10/08 09:53:38;;;;;;;0.00;0.00;;;16.30;99.90;;;;;;4991067;28;20207;-75
2022/10/08 09:56:09;;;;;;;0.08;0.08;;;16.20;99.90;;;;;;5011617;28;20678;-77
2022/10/08 09:58:47;;;;;;;0.00;0.00;;;16.10;99.90;;;;;;5010091;28;20238;-76
2022/10/08 10:01:17;;;;;;;0.00;0.00;;;16.20;99.90;;;;;;5005896;28;20208;-76
2022/10/08 10:03:50;;;;;;;0.00;0.00;;;15.90;99.90;;;;;;5011445;28;20199;-76
2022/10/08 10:06:26;;;;;;;0.00;0.00;;;15.90;99.90;;;;;;5002693;28;20203;-77
2022/10/08 10:08:59;;;;;;;0.00;0.00;;;15.80;99.90;;;;;;5011962;28;20988;-75
2022/10/08 10:11:34;;;;;;;0.10;0.10;;;15.70;99.90;;;;;;5011259;28;20204;-77
2022/10/08 10:14:10;;;;;;;0.00;0.00;;;15.70;99.90;;;;;;5007437;28;20257;-75
2022/10/08 10:16:40;;;;;;;0.00;0.00;;;15.80;99.90;;;;;;5011907;28;20539;-75
2022/10/08 10:19:15;;;;;;;0.00;0.00;;;15.80;99.90;;;;;;5035775;22;20318;-77
2022/10/08 10:21:51;;;;;;;0.00;0.00;;;15.80;99.90;;;;;;5021772;28;20273;-77
2022/10/08 10:24:38;;;;;;;0.00;0.00;;;15.90;99.90;;;;;;5029580;28;20236;-77
2022/10/08 10:27:10;;;;;;;0.00;0.00;;;15.90;99.90;;;;;;5026652;28;20195;-77
2022/10/08 10:29:51;;;;;;;0.00;0.00;;;16.00;99.90;;;;;;5019575;28;20243;-77
2022/10/08 10:32:24;;;;;;;0.00;0.00;;;15.90;99.90;;;;;;5020432;28;20203;-77
2022/10/08 10:35:13;;;;;;;0.00;0.00;;;16.00;99.90;;;;;;5025062;28;20668;-77
2022/10/08 10:37:52;;;;;;;0.00;0.00;;;16.00;99.90;;;;;;5021428;28;20610;-77
2022/10/08 10:41:02;;;;;;;0.00;0.00;;;16.10;99.90;;;;;;5026608;28;20729;-78
2022/10/08 10:43:48;;;;;;;0.00;0.00;;;16.20;99.90;;;;;;5026604;28;20211;-77
2022/10/08 10:46:28;;;;;;;0.00;0.00;;;16.30;99.90;;;;;;5048880;28;20202;-77
2022/10/08 10:49:00;;;;;;;0.00;0.00;;;16.40;99.90;;;;;;5043718;28;20229;-77
2022/10/08 10:51:54;;;;;;;0.00;0.00;;;16.40;99.90;;;;;;5045452;28;20268;-77
2022/10/08 10:54:52;;;;;;;0.00;0.00;;;16.40;99.90;;;;;;5043079;28;20225;-77
2022/10/08 10:57:29;;;;;;;0.00;0.00;;;16.00;99.90;;;;;;5041258;28;20223;-77
2022/10/08 11:00:04;;;;;;;0.00;0.00;;;15.80;99.90;;;;;;5038349;28;20234;-77
2022/10/08 11:02:41;;;;;;;0.00;0.00;;;15.80;99.90;;;;;;5043001;28;20934;-77
2022/10/08 11:05:18;;;;;;;0.00;0.00;;;16.00;99.90;;;;;;5039997;28;20203;-77
2022/10/08 11:08:02;;;;;;;0.00;0.00;;;16.30;99.90;;;;;;5044056;28;20217;-76
2022/10/08 11:10:40;;;;;;;0.00;0.00;;;16.60;99.90;;;;;;5039146;28;20238;-77
2022/10/08 11:13:21;;;;;;;0.00;0.00;;;16.90;99.90;;;;;;5036251;28;20214;-77
2022/10/08 11:15:56;;;;;;;0.00;0.00;;;16.90;99.90;;;;;;5036444;28;20203;-77
2022/10/08 11:18:31;;;;;;;0.00;0.00;;;17.50;99.90;;;;;;5036418;28;20288;-76
2022/10/08 11:21:12;;;;;;;0.00;0.00;;;17.50;99.90;;;;;;5013277;28;20198;-77
2022/10/08 11:23:56;;;;;;;0.00;0.00;;;17.60;99.90;;;;;;5025390;28;20241;-77
2022/10/08 11:26:32;;;;;;;0.00;0.00;;;17.90;99.90;;;;;;5037841;28;20213;-77
2022/10/08 11:29:08;;;;;;;0.00;0.00;;;18.00;99.90;;;;;;5021569;28;20210;-77
2022/10/08 11:31:42;;;;;;;0.00;0.00;;;17.80;99.90;;;;;;5046323;28;20214;-77
2022/10/08 11:34:20;;;;;;;0.00;0.00;;;17.50;99.90;;;;;;5041313;28;20199;-77
2022/10/08 11:36:58;;;;;;;0.00;0.00;;;17.60;99.90;;;;;;5033844;28;20228;-77
2022/10/08 11:39:34;;;;;;;0.00;0.00;;;17.50;99.90;;;;;;5030541;28;20223;-77
2022/10/08 11:42:10;;;;;;;0.00;0.00;;;17.60;99.90;;;;;;5033847;28;20229;-77
2022/10/08 11:44:38;;;;;;;0.00;0.00;;;17.30;99.90;;;;;;5032655;28;20209;-77
2022/10/08 11:47:50;;;;;;;0.00;0.00;;;17.30;99.90;;;;;;5033152;28;20199;-77
2022/10/08 11:50:24;;;;;;;0.00;0.00;;;17.20;99.90;;;;;;4984279;28;20271;-77
2022/10/08 11:52:55;;;;;;;0.00;0.00;;;17.30;99.90;;;;;;4993494;28;20683;-77
2022/10/08 11:55:28;;;;;;;0.00;0.00;;;17.30;99.90;;;;;;5001635;28;20203;-77
2022/10/08 11:57:58;;;;;;;0.00;0.00;;;17.30;99.90;;;;;;5037040;28;20195;-77
2022/10/08 12:00:41;;;;;;;0.00;0.00;;;17.10;99.90;;;;;;5037060;28;20215;-77
2022/10/08 12:03:23;;;;;;;0.00;0.00;;;17.00;99.90;;;;;;5042235;28;20312;-77
2022/10/08 12:05:53;;;;;;;0.00;0.00;;;17.00;99.90;;;;;;5037320;28;20199;-77
2022/10/08 12:08:47;;;;;;;0.00;0.00;;;17.00;99.90;;;;;;5037580;28;20227;-77
2022/10/08 12:11:51;;;;;;;0.00;0.00;;;17.10;99.90;;;;;;5033594;28;20257;-77
2022/10/08 12:14:47;;;;;;;0.00;0.00;;;17.50;99.90;;;;;;5031940;28;20207;-77
2022/10/08 12:17:15;;;;;;;0.00;0.00;;;18.00;99.90;;;;;;5038962;28;20223;-77
2022/10/08 12:20:04;;;;;;;0.00;0.00;;;18.10;99.90;;;;;;5040833;28;20235;-77
2022/10/08 12:22:44;;;;;;;0.00;0.00;;;17.90;99.90;;;;;;5036788;28;20605;-76
2022/10/08 12:26:07;;;;;;;0.00;0.00;;;17.70;99.90;;;;;;5037720;28;20299;-77
2022/10/08 12:28:50;;;;;;;0.00;0.00;;;17.90;99.90;;;;;;5037377;28;20254;-76
2022/10/08 12:31:30;;;;;;;0.00;0.00;;;17.70;99.90;;;;;;5047072;28;20206;-76
2022/10/08 12:34:01;;;;;;;0.00;0.00;;;17.40;99.90;;;;;;5033791;28;20672;-77
2022/10/08 12:36:43;;;;;;;0.00;0.00;;;17.20;99.90;;;;;;5031308;28;20208;-77
2022/10/08 12:39:18;;;;;;;0.00;0.00;;;17.10;99.90;;;;;;5032765;28;20215;-76
2022/10/08 12:41:53;;;;;;;0.00;0.00;;;17.10;99.90;;;;;;5043333;28;20195;-75
2022/10/08 12:44:37;;;;;;;0.00;0.00;;;17.20;99.90;;;;;;5034032;28;20219;-75
2022/10/08 12:47:16;;;;;;;0.00;0.00;;;17.10;99.90;;;;;;5043844;28;20211;-75
2022/10/08 12:49:49;;;;;;;0.00;0.00;;;17.00;99.90;;;;;;5044099;28;20238;-75
2022/10/08 12:52:19;;;;;;;0.00;0.00;;;17.00;99.90;;;;;;5039034;28;20258;-75
2022/10/08 12:54:50;;;;;;;0.00;0.00;;;16.90;99.90;;;;;;5034738;28;20256;-77
2022/10/08 12:57:22;;;;;;;0.00;0.00;;;16.80;99.90;;;;;;5032777;28;20214;-75
2022/10/08 12:59:52;;;;;;;0.00;0.00;;;16.80;99.90;;;;;;5034996;28;20241;-75
2022/10/08 13:02:36;;;;;;;0.00;0.00;;;16.80;99.90;;;;;;5040458;28;20203;-75
2022/10/08 13:05:06;;;;;;;0.00;0.00;;;16.70;99.90;;;;;;5032645;28;20223;-75
2022/10/08 13:07:35;;;;;;;0.00;0.00;;;16.70;99.90;;;;;;5042034;28;20604;-75
2022/10/08 13:10:17;;;;;;;0.00;0.00;;;16.60;99.90;;;;;;5042966;28;20223;-75
2022/10/08 13:12:58;;;;;;;0.00;0.00;;;16.40;99.90;;;;;;5044569;28;20199;-75
2022/10/08 13:15:29;;;;;;;0.00;0.00;;;16.40;99.90;;;;;;5037114;28;20434;-75
2022/10/08 13:17:57;;;;;;;0.00;0.00;;;16.30;99.90;;;;;;5033044;28;20206;-76